sensor_id;sensor_type;location;lat;lon;timestamp;P1;durP1;ratioP1;P2;durP2;ratioP2
82900;SDS011;72673;50.822;3.280;2024-01-30T00:00:08;14.82;;;7.93;;
82900;SDS011;72673;50.822;3.280;2024-01-30T00:02:34;16.25;;;8.40;;
82900;SDS011;72673;50.822;3.280;2024-01-30T00:05:00;10.77;;;7.03;;
82900;SDS011;72673;50.822;3.280;2024-01-30T00:07:26;14.13;;;7.38;;
82900;SDS011;72673;50.822;3.280;2024-01-30T00:09:51;14.07;;;8.02;;
82900;SDS011;72673;50.822;3.280;2024-01-30T00:12:17;13.80;;;7.25;;
82900;SDS011;72673;50.822;3.280;2024-01-30T00:14:43;14.60;;;7.53;;
82900;SDS011;72673;50.822;3.280;2024-01-30T00:17:09;12.15;;;7.00;;
82900;SDS011;72673;50.822;3.280;2024-01-30T00:19:34;11.60;;;7.13;;
82900;SDS011;72673;50.822;3.280;2024-01-30T00:22:00;13.77;;;7.50;;
82900;SDS011;72673;50.822;3.280;2024-01-30T00:24:26;16.00;;;7.22;;
82900;SDS011;72673;50.822;3.280;2024-01-30T00:26:51;12.02;;;7.35;;
82900;SDS011;72673;50.822;3.280;2024-01-30T00:29:17;13.63;;;7.43;;
82900;SDS011;72673;50.822;3.280;2024-01-30T00:31:45;13.15;;;7.68;;
82900;SDS011;72673;50.822;3.280;2024-01-30T00:34:10;16.48;;;7.88;;
82900;SDS011;72673;50.822;3.280;2024-01-30T00:36:36;13.00;;;7.55;;
82900;SDS011;72673;50.822;3.280;2024-01-30T00:39:02;14.45;;;7.90;;
82900;SDS011;72673;50.822;3.280;2024-01-30T00:41:31;13.45;;;7.50;;
82900;SDS011;72673;50.822;3.280;2024-01-30T00:43:57;10.95;;;7.53;;
82900;SDS011;72673;50.822;3.280;2024-01-30T00:46:22;15.68;;;7.97;;
82900;SDS011;72673;50.822;3.280;2024-01-30T00:48:48;11.68;;;7.07;;
82900;SDS011;72673;50.822;3.280;2024-01-30T00:51:14;14.57;;;7.70;;
82900;SDS011;72673;50.822;3.280;2024-01-30T00:53:39;13.80;;;7.45;;
82900;SDS011;72673;50.822;3.280;2024-01-30T00:56:06;13.38;;;7.82;;
82900;SDS011;72673;50.822;3.280;2024-01-30T00:58:32;15.05;;;8.02;;
82900;SDS011;72673;50.822;3.280;2024-01-30T01:00:58;13.13;;;7.55;;
82900;SDS011;72673;50.822;3.280;2024-01-30T01:03:24;13.98;;;7.90;;
82900;SDS011;72673;50.822;3.280;2024-01-30T01:05:50;14.40;;;8.13;;
82900;SDS011;72673;50.822;3.280;2024-01-30T01:08:15;12.98;;;7.85;;
82900;SDS011;72673;50.822;3.280;2024-01-30T01:10:41;14.63;;;7.40;;
82900;SDS011;72673;50.822;3.280;2024-01-30T01:13:07;13.70;;;7.10;;
82900;SDS011;72673;50.822;3.280;2024-01-30T01:15:32;13.63;;;7.95;;
82900;SDS011;72673;50.822;3.280;2024-01-30T01:17:58;15.02;;;7.45;;
82900;SDS011;72673;50.822;3.280;2024-01-30T01:20:23;14.60;;;7.38;;
82900;SDS011;72673;50.822;3.280;2024-01-30T01:22:49;11.88;;;7.40;;
82900;SDS011;72673;50.822;3.280;2024-01-30T01:25:15;13.05;;;7.65;;
82900;SDS011;72673;50.822;3.280;2024-01-30T01:27:40;13.68;;;8.05;;
82900;SDS011;72673;50.822;3.280;2024-01-30T01:30:08;14.48;;;7.90;;
82900;SDS011;72673;50.822;3.280;2024-01-30T01:32:35;13.23;;;7.88;;
82900;SDS011;72673;50.822;3.280;2024-01-30T01:35:01;17.30;;;7.72;;
82900;SDS011;72673;50.822;3.280;2024-01-30T01:37:27;15.00;;;8.00;;
82900;SDS011;72673;50.822;3.280;2024-01-30T01:39:53;15.52;;;7.95;;
82900;SDS011;72673;50.822;3.280;2024-01-30T01:42:19;13.30;;;7.95;;
82900;SDS011;72673;50.822;3.280;2024-01-30T01:44:44;14.27;;;7.70;;
82900;SDS011;72673;50.822;3.280;2024-01-30T01:47:10;16.05;;;8.63;;
82900;SDS011;72673;50.822;3.280;2024-01-30T01:49:36;17.00;;;8.57;;
82900;SDS011;72673;50.822;3.280;2024-01-30T01:52:02;19.48;;;9.15;;
82900;SDS011;72673;50.822;3.280;2024-01-30T01:54:28;15.70;;;8.10;;
82900;SDS011;72673;50.822;3.280;2024-01-30T01:56:54;14.32;;;8.05;;
82900;SDS011;72673;50.822;3.280;2024-01-30T01:59:20;14.93;;;7.80;;
82900;SDS011;72673;50.822;3.280;2024-01-30T02:01:47;16.95;;;7.78;;
82900;SDS011;72673;50.822;3.280;2024-01-30T02:04:16;14.98;;;8.85;;
82900;SDS011;72673;50.822;3.280;2024-01-30T02:06:42;14.20;;;7.93;;
82900;SDS011;72673;50.822;3.280;2024-01-30T02:09:09;12.52;;;8.18;;
82900;SDS011;72673;50.822;3.280;2024-01-30T02:11:34;13.63;;;7.88;;
82900;SDS011;72673;50.822;3.280;2024-01-30T02:14:04;17.98;;;8.15;;
82900;SDS011;72673;50.822;3.280;2024-01-30T02:16:30;15.10;;;8.02;;
82900;SDS011;72673;50.822;3.280;2024-01-30T02:18:56;12.77;;;8.43;;
82900;SDS011;72673;50.822;3.280;2024-01-30T02:21:21;18.30;;;8.52;;
82900;SDS011;72673;50.822;3.280;2024-01-30T02:23:47;17.20;;;8.18;;
82900;SDS011;72673;50.822;3.280;2024-01-30T02:26:14;17.83;;;8.82;;
82900;SDS011;72673;50.822;3.280;2024-01-30T02:28:40;12.93;;;7.80;;
82900;SDS011;72673;50.822;3.280;2024-01-30T02:31:05;14.35;;;8.45;;
82900;SDS011;72673;50.822;3.280;2024-01-30T02:33:31;15.93;;;8.23;;
82900;SDS011;72673;50.822;3.280;2024-01-30T02:35:57;17.55;;;8.43;;
82900;SDS011;72673;50.822;3.280;2024-01-30T02:38:23;14.60;;;7.88;;
82900;SDS011;72673;50.822;3.280;2024-01-30T02:40:48;14.52;;;8.20;;
82900;SDS011;72673;50.822;3.280;2024-01-30T02:43:15;16.05;;;8.70;;
82900;SDS011;72673;50.822;3.280;2024-01-30T02:45:41;16.25;;;8.70;;
82900;SDS011;72673;50.822;3.280;2024-01-30T02:48:07;14.50;;;8.73;;
82900;SDS011;72673;50.822;3.280;2024-01-30T02:50:33;14.93;;;8.07;;
82900;SDS011;72673;50.822;3.280;2024-01-30T02:52:59;18.83;;;9.10;;
82900;SDS011;72673;50.822;3.280;2024-01-30T02:55:24;15.32;;;8.43;;
82900;SDS011;72673;50.822;3.280;2024-01-30T02:57:50;17.75;;;8.13;;
82900;SDS011;72673;50.822;3.280;2024-01-30T03:00:15;14.60;;;8.68;;
82900;SDS011;72673;50.822;3.280;2024-01-30T03:02:41;18.88;;;8.38;;
82900;SDS011;72673;50.822;3.280;2024-01-30T03:05:07;12.93;;;7.50;;
82900;SDS011;72673;50.822;3.280;2024-01-30T03:07:33;13.90;;;8.32;;
82900;SDS011;72673;50.822;3.280;2024-01-30T03:09:58;13.73;;;8.48;;
82900;SDS011;72673;50.822;3.280;2024-01-30T03:12:24;17.50;;;8.60;;
82900;SDS011;72673;50.822;3.280;2024-01-30T03:14:50;15.32;;;7.95;;
82900;SDS011;72673;50.822;3.280;2024-01-30T03:17:15;17.00;;;8.48;;
82900;SDS011;72673;50.822;3.280;2024-01-30T03:19:42;13.23;;;7.82;;
82900;SDS011;72673;50.822;3.280;2024-01-30T03:22:08;14.85;;;8.35;;
82900;SDS011;72673;50.822;3.280;2024-01-30T03:24:33;14.18;;;8.27;;
82900;SDS011;72673;50.822;3.280;2024-01-30T03:26:59;14.88;;;7.72;;
82900;SDS011;72673;50.822;3.280;2024-01-30T03:29:26;16.55;;;8.10;;
82900;SDS011;72673;50.822;3.280;2024-01-30T03:31:51;14.65;;;8.07;;
82900;SDS011;72673;50.822;3.280;2024-01-30T03:34:17;14.07;;;7.82;;
82900;SDS011;72673;50.822;3.280;2024-01-30T03:36:43;12.05;;;8.15;;
82900;SDS011;72673;50.822;3.280;2024-01-30T03:39:08;13.10;;;8.48;;
82900;SDS011;72673;50.822;3.280;2024-01-30T03:41:34;13.65;;;7.38;;
82900;SDS011;72673;50.822;3.280;2024-01-30T03:44:00;14.65;;;8.07;;
82900;SDS011;72673;50.822;3.280;2024-01-30T03:46:25;14.43;;;8.35;;
82900;SDS011;72673;50.822;3.280;2024-01-30T03:48:51;14.80;;;7.63;;
82900;SDS011;72673;50.822;3.280;2024-01-30T03:51:17;15.20;;;7.90;;
82900;SDS011;72673;50.822;3.280;2024-01-30T03:53:42;17.33;;;8.35;;
82900;SDS011;72673;50.822;3.280;2024-01-30T03:56:09;15.48;;;8.70;;
82900;SDS011;72673;50.822;3.280;2024-01-30T03:58:35;17.77;;;8.60;;
82900;SDS011;72673;50.822;3.280;2024-01-30T04:01:00;15.52;;;8.10;;
82900;SDS011;72673;50.822;3.280;2024-01-30T04:03:26;17.67;;;9.70;;
82900;SDS011;72673;50.822;3.280;2024-01-30T04:05:52;15.38;;;8.57;;
82900;SDS011;72673;50.822;3.280;2024-01-30T04:08:18;12.48;;;7.50;;
82900;SDS011;72673;50.822;3.280;2024-01-30T04:10:44;15.45;;;8.38;;
82900;SDS011;72673;50.822;3.280;2024-01-30T04:13:10;15.65;;;8.00;;
82900;SDS011;72673;50.822;3.280;2024-01-30T04:15:35;16.05;;;8.40;;
82900;SDS011;72673;50.822;3.280;2024-01-30T04:18:01;15.93;;;8.10;;
82900;SDS011;72673;50.822;3.280;2024-01-30T04:20:27;14.00;;;8.40;;
82900;SDS011;72673;50.822;3.280;2024-01-30T04:22:53;16.83;;;8.63;;
82900;SDS011;72673;50.822;3.280;2024-01-30T04:25:19;16.08;;;8.63;;
82900;SDS011;72673;50.822;3.280;2024-01-30T04:27:44;14.75;;;8.25;;
82900;SDS011;72673;50.822;3.280;2024-01-30T04:30:11;18.52;;;8.60;;
82900;SDS011;72673;50.822;3.280;2024-01-30T04:32:36;16.77;;;8.93;;
82900;SDS011;72673;50.822;3.280;2024-01-30T04:35:02;14.80;;;8.85;;
82900;SDS011;72673;50.822;3.280;2024-01-30T04:37:28;13.45;;;7.38;;
82900;SDS011;72673;50.822;3.280;2024-01-30T04:39:54;16.38;;;8.80;;
82900;SDS011;72673;50.822;3.280;2024-01-30T04:42:20;17.33;;;8.50;;
82900;SDS011;72673;50.822;3.280;2024-01-30T04:44:46;16.20;;;8.63;;
82900;SDS011;72673;50.822;3.280;2024-01-30T04:47:12;13.60;;;8.88;;
82900;SDS011;72673;50.822;3.280;2024-01-30T04:49:40;16.90;;;8.13;;
82900;SDS011;72673;50.822;3.280;2024-01-30T04:52:07;15.75;;;9.00;;
82900;SDS011;72673;50.822;3.280;2024-01-30T04:54:33;15.45;;;8.40;;
82900;SDS011;72673;50.822;3.280;2024-01-30T04:57:00;17.75;;;8.80;;
82900;SDS011;72673;50.822;3.280;2024-01-30T04:59:26;14.40;;;8.13;;
82900;SDS011;72673;50.822;3.280;2024-01-30T05:01:52;14.23;;;8.07;;
82900;SDS011;72673;50.822;3.280;2024-01-30T05:04:18;19.98;;;8.45;;
82900;SDS011;72673;50.822;3.280;2024-01-30T05:06:43;14.55;;;8.43;;
82900;SDS011;72673;50.822;3.280;2024-01-30T05:09:10;17.50;;;8.57;;
82900;SDS011;72673;50.822;3.280;2024-01-30T05:11:37;16.10;;;8.50;;
82900;SDS011;72673;50.822;3.280;2024-01-30T05:14:03;13.75;;;8.40;;
82900;SDS011;72673;50.822;3.280;2024-01-30T05:16:29;16.30;;;9.80;;
82900;SDS011;72673;50.822;3.280;2024-01-30T05:18:55;15.27;;;9.10;;
82900;SDS011;72673;50.822;3.280;2024-01-30T05:21:21;17.63;;;9.20;;
82900;SDS011;72673;50.822;3.280;2024-01-30T05:23:46;16.83;;;8.65;;
82900;SDS011;72673;50.822;3.280;2024-01-30T05:26:12;15.48;;;8.30;;
82900;SDS011;72673;50.822;3.280;2024-01-30T05:28:37;14.68;;;8.18;;
82900;SDS011;72673;50.822;3.280;2024-01-30T05:31:03;14.93;;;8.50;;
82900;SDS011;72673;50.822;3.280;2024-01-30T05:33:29;14.30;;;8.15;;
82900;SDS011;72673;50.822;3.280;2024-01-30T05:35:54;14.43;;;8.25;;
82900;SDS011;72673;50.822;3.280;2024-01-30T05:38:20;17.05;;;9.10;;
82900;SDS011;72673;50.822;3.280;2024-01-30T05:40:46;14.63;;;8.48;;
82900;SDS011;72673;50.822;3.280;2024-01-30T05:43:11;16.10;;;8.90;;
82900;SDS011;72673;50.822;3.280;2024-01-30T05:45:37;12.77;;;8.32;;
82900;SDS011;72673;50.822;3.280;2024-01-30T05:48:03;13.40;;;8.30;;
82900;SDS011;72673;50.822;3.280;2024-01-30T05:50:29;15.23;;;8.15;;
82900;SDS011;72673;50.822;3.280;2024-01-30T05:52:55;13.10;;;7.85;;
82900;SDS011;72673;50.822;3.280;2024-01-30T05:55:21;11.85;;;8.10;;
82900;SDS011;72673;50.822;3.280;2024-01-30T05:57:46;13.13;;;8.57;;
82900;SDS011;72673;50.822;3.280;2024-01-30T06:00:12;16.08;;;7.78;;
82900;SDS011;72673;50.822;3.280;2024-01-30T06:02:39;13.70;;;7.63;;
82900;SDS011;72673;50.822;3.280;2024-01-30T06:05:04;14.90;;;8.07;;
82900;SDS011;72673;50.822;3.280;2024-01-30T06:07:31;15.25;;;8.05;;
82900;SDS011;72673;50.822;3.280;2024-01-30T06:09:57;17.70;;;8.77;;
82900;SDS011;72673;50.822;3.280;2024-01-30T06:12:22;16.00;;;8.15;;
82900;SDS011;72673;50.822;3.280;2024-01-30T06:14:48;13.93;;;7.68;;
82900;SDS011;72673;50.822;3.280;2024-01-30T06:17:14;14.38;;;8.13;;
82900;SDS011;72673;50.822;3.280;2024-01-30T06:19:39;12.75;;;7.95;;
82900;SDS011;72673;50.822;3.280;2024-01-30T06:22:05;13.93;;;8.07;;
82900;SDS011;72673;50.822;3.280;2024-01-30T06:24:31;13.68;;;7.78;;
82900;SDS011;72673;50.822;3.280;2024-01-30T06:26:56;18.08;;;7.75;;
82900;SDS011;72673;50.822;3.280;2024-01-30T06:29:22;14.75;;;7.60;;
82900;SDS011;72673;50.822;3.280;2024-01-30T06:31:50;12.25;;;7.65;;
82900;SDS011;72673;50.822;3.280;2024-01-30T06:34:15;17.67;;;8.15;;
82900;SDS011;72673;50.822;3.280;2024-01-30T06:36:41;13.02;;;7.55;;
82900;SDS011;72673;50.822;3.280;2024-01-30T06:39:07;14.23;;;8.90;;
82900;SDS011;72673;50.822;3.280;2024-01-30T06:41:32;16.67;;;8.52;;
82900;SDS011;72673;50.822;3.280;2024-01-30T06:43:58;15.10;;;8.50;;
82900;SDS011;72673;50.822;3.280;2024-01-30T06:46:24;14.10;;;7.90;;
82900;SDS011;72673;50.822;3.280;2024-01-30T06:48:50;16.42;;;7.72;;
82900;SDS011;72673;50.822;3.280;2024-01-30T06:51:15;17.00;;;8.27;;
82900;SDS011;72673;50.822;3.280;2024-01-30T06:53:41;16.15;;;7.85;;
82900;SDS011;72673;50.822;3.280;2024-01-30T06:56:07;17.02;;;8.18;;
82900;SDS011;72673;50.822;3.280;2024-01-30T06:58:33;16.65;;;8.45;;
82900;SDS011;72673;50.822;3.280;2024-01-30T07:00:58;17.45;;;8.38;;
82900;SDS011;72673;50.822;3.280;2024-01-30T07:03:24;15.35;;;7.70;;
82900;SDS011;72673;50.822;3.280;2024-01-30T07:05:50;15.50;;;8.40;;
82900;SDS011;72673;50.822;3.280;2024-01-30T07:08:16;18.27;;;8.18;;
82900;SDS011;72673;50.822;3.280;2024-01-30T07:10:43;19.65;;;7.70;;
82900;SDS011;72673;50.822;3.280;2024-01-30T07:13:09;15.68;;;7.95;;
82900;SDS011;72673;50.822;3.280;2024-01-30T07:15:36;14.45;;;8.07;;
82900;SDS011;72673;50.822;3.280;2024-01-30T07:18:05;17.43;;;8.67;;
82900;SDS011;72673;50.822;3.280;2024-01-30T07:20:31;16.55;;;8.43;;
82900;SDS011;72673;50.822;3.280;2024-01-30T07:23:00;20.13;;;8.32;;
82900;SDS011;72673;50.822;3.280;2024-01-30T07:25:26;18.13;;;8.13;;
82900;SDS011;72673;50.822;3.280;2024-01-30T07:27:55;19.60;;;7.60;;
82900;SDS011;72673;50.822;3.280;2024-01-30T07:30:21;16.95;;;8.85;;
82900;SDS011;72673;50.822;3.280;2024-01-30T07:32:48;16.35;;;8.30;;
82900;SDS011;72673;50.822;3.280;2024-01-30T07:35:14;18.77;;;7.97;;
82900;SDS011;72673;50.822;3.280;2024-01-30T07:37:39;15.00;;;8.32;;
82900;SDS011;72673;50.822;3.280;2024-01-30T07:40:05;14.48;;;7.75;;
82900;SDS011;72673;50.822;3.280;2024-01-30T07:42:32;18.13;;;7.75;;
82900;SDS011;72673;50.822;3.280;2024-01-30T07:44:58;20.35;;;7.03;;
82900;SDS011;72673;50.822;3.280;2024-01-30T07:47:25;14.13;;;7.95;;
82900;SDS011;72673;50.822;3.280;2024-01-30T07:49:51;15.70;;;7.47;;
82900;SDS011;72673;50.822;3.280;2024-01-30T07:52:17;18.25;;;7.32;;
82900;SDS011;72673;50.822;3.280;2024-01-30T07:54:43;12.25;;;6.90;;
82900;SDS011;72673;50.822;3.280;2024-01-30T07:57:09;12.43;;;5.80;;
82900;SDS011;72673;50.822;3.280;2024-01-30T07:59:35;10.48;;;5.72;;
82900;SDS011;72673;50.822;3.280;2024-01-30T08:02:00;12.55;;;5.55;;
82900;SDS011;72673;50.822;3.280;2024-01-30T08:04:26;11.60;;;5.97;;
82900;SDS011;72673;50.822;3.280;2024-01-30T08:06:52;13.75;;;6.20;;
82900;SDS011;72673;50.822;3.280;2024-01-30T08:09:18;20.45;;;6.60;;
82900;SDS011;72673;50.822;3.280;2024-01-30T08:11:43;14.82;;;5.88;;
82900;SDS011;72673;50.822;3.280;2024-01-30T08:14:09;16.40;;;5.80;;
82900;SDS011;72673;50.822;3.280;2024-01-30T08:16:35;18.63;;;6.00;;
82900;SDS011;72673;50.822;3.280;2024-01-30T08:19:00;11.32;;;4.40;;
82900;SDS011;72673;50.822;3.280;2024-01-30T08:21:26;15.50;;;4.25;;
82900;SDS011;72673;50.822;3.280;2024-01-30T08:23:52;15.50;;;3.70;;
82900;SDS011;72673;50.822;3.280;2024-01-30T08:26:17;9.63;;;2.55;;
82900;SDS011;72673;50.822;3.280;2024-01-30T08:28:43;10.48;;;2.42;;
82900;SDS011;72673;50.822;3.280;2024-01-30T08:31:10;9.40;;;2.63;;
82900;SDS011;72673;50.822;3.280;2024-01-30T08:33:37;6.15;;;2.70;;
82900;SDS011;72673;50.822;3.280;2024-01-30T08:36:02;10.32;;;2.70;;
82900;SDS011;72673;50.822;3.280;2024-01-30T08:38:28;10.18;;;1.95;;
82900;SDS011;72673;50.822;3.280;2024-01-30T08:40:54;9.63;;;2.10;;
82900;SDS011;72673;50.822;3.280;2024-01-30T08:43:21;4.85;;;2.13;;
82900;SDS011;72673;50.822;3.280;2024-01-30T08:45:46;7.03;;;2.03;;
82900;SDS011;72673;50.822;3.280;2024-01-30T08:48:12;7.15;;;1.88;;
82900;SDS011;72673;50.822;3.280;2024-01-30T08:50:37;9.85;;;1.77;;
82900;SDS011;72673;50.822;3.280;2024-01-30T08:53:03;8.80;;;1.63;;
82900;SDS011;72673;50.822;3.280;2024-01-30T08:55:29;8.52;;;2.10;;
82900;SDS011;72673;50.822;3.280;2024-01-30T08:57:55;10.43;;;1.70;;
82900;SDS011;72673;50.822;3.280;2024-01-30T09:00:21;5.35;;;0.80;;
82900;SDS011;72673;50.822;3.280;2024-01-30T09:02:46;9.48;;;1.65;;
82900;SDS011;72673;50.822;3.280;2024-01-30T09:05:12;4.57;;;0.90;;
82900;SDS011;72673;50.822;3.280;2024-01-30T09:07:41;6.05;;;1.17;;
82900;SDS011;72673;50.822;3.280;2024-01-30T09:10:07;9.70;;;1.00;;
82900;SDS011;72673;50.822;3.280;2024-01-30T09:12:33;9.68;;;1.35;;
82900;SDS011;72673;50.822;3.280;2024-01-30T09:14:58;7.28;;;0.93;;
82900;SDS011;72673;50.822;3.280;2024-01-30T09:17:24;10.35;;;1.33;;
82900;SDS011;72673;50.822;3.280;2024-01-30T09:19:50;7.97;;;0.93;;
82900;SDS011;72673;50.822;3.280;2024-01-30T09:22:16;2.63;;;0.47;;
82900;SDS011;72673;50.822;3.280;2024-01-30T09:24:42;7.20;;;1.08;;
82900;SDS011;72673;50.822;3.280;2024-01-30T09:27:07;3.38;;;0.98;;
82900;SDS011;72673;50.822;3.280;2024-01-30T09:29:33;3.53;;;0.52;;
82900;SDS011;72673;50.822;3.280;2024-01-30T09:32:01;6.00;;;0.60;;
82900;SDS011;72673;50.822;3.280;2024-01-30T09:34:31;5.53;;;0.75;;
82900;SDS011;72673;50.822;3.280;2024-01-30T09:36:58;2.63;;;0.45;;
82900;SDS011;72673;50.822;3.280;2024-01-30T09:39:25;5.65;;;0.47;;
82900;SDS011;72673;50.822;3.280;2024-01-30T09:42:01;2.03;;;0.40;;
82900;SDS011;72673;50.822;3.280;2024-01-30T09:44:36;2.72;;;0.45;;
82900;SDS011;72673;50.822;3.280;2024-01-30T09:47:03;4.60;;;0.40;;
82900;SDS011;72673;50.822;3.280;2024-01-30T09:49:34;3.50;;;0.50;;
82900;SDS011;72673;50.822;3.280;2024-01-30T09:52:02;3.53;;;0.47;;
82900;SDS011;72673;50.822;3.280;2024-01-30T09:54:31;4.78;;;0.75;;
82900;SDS011;72673;50.822;3.280;2024-01-30T09:56:58;9.32;;;0.93;;
82900;SDS011;72673;50.822;3.280;2024-01-30T09:59:26;5.95;;;0.65;;
82900;SDS011;72673;50.822;3.280;2024-01-30T10:01:52;5.20;;;0.50;;
82900;SDS011;72673;50.822;3.280;2024-01-30T10:04:18;2.20;;;0.50;;
82900;SDS011;72673;50.822;3.280;2024-01-30T10:06:43;5.72;;;0.75;;
82900;SDS011;72673;50.822;3.280;2024-01-30T10:09:09;6.65;;;0.60;;
82900;SDS011;72673;50.822;3.280;2024-01-30T10:11:36;3.33;;;0.35;;
82900;SDS011;72673;50.822;3.280;2024-01-30T10:14:02;2.78;;;0.57;;
82900;SDS011;72673;50.822;3.280;2024-01-30T10:16:28;6.60;;;0.68;;
82900;SDS011;72673;50.822;3.280;2024-01-30T10:18:53;7.45;;;0.90;;
82900;SDS011;72673;50.822;3.280;2024-01-30T10:21:20;7.40;;;1.00;;
82900;SDS011;72673;50.822;3.280;2024-01-30T10:23:46;9.20;;;0.60;;
82900;SDS011;72673;50.822;3.280;2024-01-30T10:26:11;8.13;;;0.90;;
82900;SDS011;72673;50.822;3.280;2024-01-30T10:28:37;5.65;;;0.70;;
82900;SDS011;72673;50.822;3.280;2024-01-30T10:31:03;8.20;;;0.82;;
82900;SDS011;72673;50.822;3.280;2024-01-30T10:33:32;1.90;;;0.40;;
82900;SDS011;72673;50.822;3.280;2024-01-30T10:36:02;4.78;;;0.35;;
82900;SDS011;72673;50.822;3.280;2024-01-30T10:38:29;3.67;;;0.52;;
82900;SDS011;72673;50.822;3.280;2024-01-30T10:40:59;2.90;;;0.60;;
82900;SDS011;72673;50.822;3.280;2024-01-30T10:43:35;4.70;;;0.60;;
82900;SDS011;72673;50.822;3.280;2024-01-30T10:46:27;3.58;;;0.95;;
82900;SDS011;72673;50.822;3.280;2024-01-30T10:51:23;4.82;;;0.50;;
82900;SDS011;72673;50.822;3.280;2024-01-30T10:53:51;3.40;;;0.80;;
82900;SDS011;72673;50.822;3.280;2024-01-30T10:56:17;3.03;;;0.50;;
82900;SDS011;72673;50.822;3.280;2024-01-30T10:58:45;6.63;;;0.77;;
82900;SDS011;72673;50.822;3.280;2024-01-30T11:01:12;3.65;;;0.52;;
82900;SDS011;72673;50.822;3.280;2024-01-30T11:03:38;9.95;;;1.27;;
82900;SDS011;72673;50.822;3.280;2024-01-30T11:06:04;6.15;;;1.05;;
82900;SDS011;72673;50.822;3.280;2024-01-30T11:08:31;8.45;;;0.85;;
82900;SDS011;72673;50.822;3.280;2024-01-30T11:10:57;2.13;;;0.50;;
82900;SDS011;72673;50.822;3.280;2024-01-30T11:13:30;6.97;;;1.20;;
82900;SDS011;72673;50.822;3.280;2024-01-30T11:16:03;9.40;;;1.85;;
82900;SDS011;72673;50.822;3.280;2024-01-30T11:18:30;2.65;;;1.15;;
82900;SDS011;72673;50.822;3.280;2024-01-30T11:20:57;1.02;;;0.50;;
82900;SDS011;72673;50.822;3.280;2024-01-30T11:23:30;4.90;;;0.57;;
82900;SDS011;72673;50.822;3.280;2024-01-30T11:25:56;5.07;;;0.52;;
82900;SDS011;72673;50.822;3.280;2024-01-30T11:28:22;4.35;;;0.40;;
82900;SDS011;72673;50.822;3.280;2024-01-30T11:30:49;1.63;;;0.40;;
82900;SDS011;72673;50.822;3.280;2024-01-30T11:33:29;1.40;;;0.50;;
82900;SDS011;72673;50.822;3.280;2024-01-30T11:35:57;4.40;;;0.60;;
82900;SDS011;72673;50.822;3.280;2024-01-30T11:38:25;4.82;;;0.98;;
82900;SDS011;72673;50.822;3.280;2024-01-30T11:40:52;2.55;;;0.57;;
82900;SDS011;72673;50.822;3.280;2024-01-30T11:43:19;3.42;;;0.68;;
82900;SDS011;72673;50.822;3.280;2024-01-30T11:45:45;3.75;;;0.63;;
82900;SDS011;72673;50.822;3.280;2024-01-30T11:48:12;3.63;;;1.08;;
82900;SDS011;72673;50.822;3.280;2024-01-30T11:50:37;4.28;;;0.82;;
82900;SDS011;72673;50.822;3.280;2024-01-30T11:53:05;2.80;;;0.90;;
82900;SDS011;72673;50.822;3.280;2024-01-30T11:55:31;4.20;;;0.98;;
82900;SDS011;72673;50.822;3.280;2024-01-30T11:57:57;1.38;;;0.80;;
82900;SDS011;72673;50.822;3.280;2024-01-30T12:00:24;4.75;;;1.48;;
82900;SDS011;72673;50.822;3.280;2024-01-30T12:02:53;6.57;;;0.88;;
82900;SDS011;72673;50.822;3.280;2024-01-30T12:05:23;2.10;;;0.70;;
82900;SDS011;72673;50.822;3.280;2024-01-30T12:07:52;4.43;;;0.75;;
82900;SDS011;72673;50.822;3.280;2024-01-30T12:10:18;2.50;;;0.77;;
82900;SDS011;72673;50.822;3.280;2024-01-30T12:12:51;3.67;;;0.70;;
82900;SDS011;72673;50.822;3.280;2024-01-30T12:15:18;3.63;;;0.95;;
82900;SDS011;72673;50.822;3.280;2024-01-30T12:17:46;4.68;;;0.80;;
82900;SDS011;72673;50.822;3.280;2024-01-30T12:20:12;3.42;;;0.60;;
82900;SDS011;72673;50.822;3.280;2024-01-30T12:22:40;4.60;;;1.30;;
82900;SDS011;72673;50.822;3.280;2024-01-30T12:25:08;9.80;;;1.30;;
82900;SDS011;72673;50.822;3.280;2024-01-30T12:27:38;5.43;;;1.08;;
82900;SDS011;72673;50.822;3.280;2024-01-30T12:30:05;4.63;;;0.60;;
82900;SDS011;72673;50.822;3.280;2024-01-30T12:37:32;6.85;;;1.75;;
82900;SDS011;72673;50.822;3.280;2024-01-30T12:39:57;5.00;;;0.93;;
82900;SDS011;72673;50.822;3.280;2024-01-30T12:42:24;9.73;;;1.30;;
82900;SDS011;72673;50.822;3.280;2024-01-30T12:44:52;4.43;;;0.80;;
82900;SDS011;72673;50.822;3.280;2024-01-30T12:47:18;6.88;;;1.38;;
82900;SDS011;72673;50.822;3.280;2024-01-30T12:49:46;5.88;;;1.67;;
82900;SDS011;72673;50.822;3.280;2024-01-30T12:52:12;7.53;;;1.05;;
82900;SDS011;72673;50.822;3.280;2024-01-30T12:54:39;5.68;;;0.70;;
82900;SDS011;72673;50.822;3.280;2024-01-30T12:57:05;4.90;;;0.95;;
82900;SDS011;72673;50.822;3.280;2024-01-30T12:59:31;9.55;;;1.15;;
82900;SDS011;72673;50.822;3.280;2024-01-30T13:01:56;5.07;;;0.52;;
82900;SDS011;72673;50.822;3.280;2024-01-30T13:04:24;4.47;;;1.33;;
82900;SDS011;72673;50.822;3.280;2024-01-30T13:06:49;5.13;;;1.23;;
82900;SDS011;72673;50.822;3.280;2024-01-30T13:09:15;6.20;;;1.20;;
82900;SDS011;72673;50.822;3.280;2024-01-30T13:11:40;5.95;;;1.30;;
82900;SDS011;72673;50.822;3.280;2024-01-30T13:14:06;2.78;;;0.70;;
82900;SDS011;72673;50.822;3.280;2024-01-30T13:16:32;24.40;;;1.88;;
82900;SDS011;72673;50.822;3.280;2024-01-30T13:18:58;6.47;;;0.90;;
82900;SDS011;72673;50.822;3.280;2024-01-30T13:21:23;7.68;;;0.90;;
82900;SDS011;72673;50.822;3.280;2024-01-30T13:23:49;4.20;;;1.00;;
82900;SDS011;72673;50.822;3.280;2024-01-30T13:26:18;6.35;;;1.42;;
82900;SDS011;72673;50.822;3.280;2024-01-30T13:28:44;4.78;;;1.23;;
82900;SDS011;72673;50.822;3.280;2024-01-30T13:31:09;4.60;;;1.85;;
82900;SDS011;72673;50.822;3.280;2024-01-30T13:33:35;6.50;;;1.20;;
82900;SDS011;72673;50.822;3.280;2024-01-30T13:36:01;2.40;;;0.65;;
82900;SDS011;72673;50.822;3.280;2024-01-30T13:38:26;2.58;;;0.80;;
82900;SDS011;72673;50.822;3.280;2024-01-30T13:40:52;6.05;;;1.13;;
82900;SDS011;72673;50.822;3.280;2024-01-30T13:43:17;6.70;;;1.15;;
82900;SDS011;72673;50.822;3.280;2024-01-30T13:45:43;7.65;;;1.10;;
82900;SDS011;72673;50.822;3.280;2024-01-30T13:48:09;2.15;;;0.77;;
82900;SDS011;72673;50.822;3.280;2024-01-30T13:50:34;8.52;;;1.00;;
82900;SDS011;72673;50.822;3.280;2024-01-30T13:53:01;3.03;;;1.02;;
82900;SDS011;72673;50.822;3.280;2024-01-30T13:55:27;2.35;;;0.52;;
82900;SDS011;72673;50.822;3.280;2024-01-30T13:57:53;6.88;;;1.17;;
82900;SDS011;72673;50.822;3.280;2024-01-30T14:00:20;4.95;;;0.82;;
82900;SDS011;72673;50.822;3.280;2024-01-30T14:02:47;8.68;;;1.15;;
82900;SDS011;72673;50.822;3.280;2024-01-30T14:05:12;3.90;;;0.93;;
82900;SDS011;72673;50.822;3.280;2024-01-30T14:07:39;4.97;;;1.95;;
82900;SDS011;72673;50.822;3.280;2024-01-30T14:10:05;6.00;;;0.85;;
82900;SDS011;72673;50.822;3.280;2024-01-30T14:12:32;6.43;;;0.95;;
82900;SDS011;72673;50.822;3.280;2024-01-30T14:14:57;11.23;;;1.98;;
82900;SDS011;72673;50.822;3.280;2024-01-30T14:17:23;4.80;;;0.90;;
82900;SDS011;72673;50.822;3.280;2024-01-30T14:19:48;3.08;;;0.95;;
82900;SDS011;72673;50.822;3.280;2024-01-30T14:22:14;3.97;;;0.90;;
82900;SDS011;72673;50.822;3.280;2024-01-30T14:24:40;9.15;;;1.20;;
82900;SDS011;72673;50.822;3.280;2024-01-30T14:27:05;4.53;;;1.58;;
82900;SDS011;72673;50.822;3.280;2024-01-30T14:29:32;1.70;;;0.55;;
82900;SDS011;72673;50.822;3.280;2024-01-30T14:31:58;4.05;;;1.35;;
82900;SDS011;72673;50.822;3.280;2024-01-30T14:34:23;7.43;;;1.40;;
82900;SDS011;72673;50.822;3.280;2024-01-30T14:36:49;3.88;;;1.40;;
82900;SDS011;72673;50.822;3.280;2024-01-30T14:39:15;4.68;;;1.42;;
82900;SDS011;72673;50.822;3.280;2024-01-30T14:41:41;8.88;;;1.65;;